createdAt,value
2018-03-20T00:08:38.061Z,96.86
2018-03-20T00:18:44.630Z,96.2
2018-03-20T00:28:39.095Z,96.96
2018-03-20T00:38:39.053Z,97.91
2018-03-20T00:48:39.127Z,98.28
2018-03-20T00:58:38.069Z,96.11
2018-03-20T01:08:38.109Z,93.7
2018-03-20T01:18:40.154Z,95.45
2018-03-20T01:28:38.058Z,94.79
2018-03-20T01:38:38.138Z,94.03
2018-03-20T01:48:39.091Z,96.68
2018-03-20T01:58:42.826Z,99.38
2018-03-20T02:08:43.972Z,99.99
2018-03-20T02:18:39.248Z,99.99
2018-03-20T02:28:38.138Z,99.99
2018-03-20T02:38:38.195Z,99.99
2018-03-20T02:48:39.197Z,99.99
2018-03-20T02:58:40.149Z,99.99
2018-03-20T03:08:38.189Z,99.99
2018-03-20T03:18:38.277Z,99.99
2018-03-20T03:28:42.223Z,99.99
2018-03-20T03:38:38.168Z,99.99
2018-03-20T03:48:38.263Z,99.99
2018-03-20T03:58:39.227Z,99.99
2018-03-20T04:08:39.212Z,99.99
2018-03-20T04:18:39.260Z,99.99
2018-03-20T04:28:39.198Z,99.99
2018-03-20T04:38:38.232Z,99.99
2018-03-20T04:48:38.297Z,99.99
2018-03-20T04:58:38.256Z,99.99
2018-03-20T05:08:38.530Z,99.99
2018-03-20T05:18:38.306Z,99.99
2018-03-20T05:28:38.360Z,99.99
2018-03-20T05:38:38.296Z,99.99
2018-03-20T05:48:39.311Z,99.99
2018-03-20T05:58:38.229Z,99.99
2018-03-20T06:08:38.271Z,99.99
2018-03-20T06:18:38.307Z,99.99
2018-03-20T06:28:38.287Z,99.99
2018-03-20T06:38:38.346Z,99.99
2018-03-20T06:48:38.358Z,99.99
2018-03-20T06:58:38.322Z,99.99
2018-03-20T07:08:38.319Z,99.99
2018-03-20T07:18:38.300Z,99.99
2018-03-20T07:28:38.425Z,99.99
2018-03-20T07:38:38.300Z,99.99
2018-03-20T07:48:38.359Z,99.99
2018-03-20T07:58:38.349Z,99.99
2018-03-20T08:08:38.354Z,99.99
2018-03-20T08:18:38.365Z,99.99
2018-03-20T08:28:38.344Z,99.99
2018-03-20T08:38:38.363Z,99.99
2018-03-20T08:48:38.397Z,99.99
2018-03-20T08:58:38.390Z,99.99
2018-03-20T09:08:38.661Z,99.99
2018-03-20T09:18:38.468Z,99.99
2018-03-20T09:28:38.419Z,99.99
2018-03-20T09:38:39.765Z,99.99
2018-03-20T09:48:39.032Z,99.99
2018-03-20T09:58:38.423Z,95.6
2018-03-20T10:08:38.423Z,89.53
2018-03-20T10:18:38.461Z,83.03
2018-03-20T10:28:38.494Z,84.45
2018-03-20T10:38:38.554Z,79.23
2018-03-20T10:48:38.458Z,77.84
2018-03-20T10:58:38.490Z,69.11
2018-03-20T11:08:38.458Z,70.25
2018-03-20T11:18:38.449Z,70.25
2018-03-20T11:28:38.538Z,65.25
2018-03-20T11:38:38.606Z,61.45
2018-03-20T11:48:38.513Z,62.78
2018-03-20T11:58:38.532Z,59.08
2018-03-20T12:08:38.545Z,56.07
2018-03-20T12:18:38.527Z,59.27
2018-03-20T12:28:38.567Z,61.39
2018-03-20T12:38:38.596Z,59.11
2018-03-20T12:48:38.557Z,61.29
2018-03-20T12:58:38.563Z,60.53
2018-03-20T13:08:38.567Z,62.91
2018-03-20T13:18:38.588Z,60.66
2018-03-20T13:28:38.644Z,57.5
2018-03-20T13:38:38.616Z,59.2
2018-03-20T13:48:38.640Z,59.42
2018-03-20T13:58:38.703Z,59.33
2018-03-20T14:08:38.621Z,59.23
2018-03-20T14:18:38.655Z,58.95
2018-03-20T14:28:38.614Z,57.71
2018-03-20T14:38:38.699Z,58
2018-03-20T14:48:38.798Z,54.29
2018-03-20T14:58:38.680Z,54.29
2018-03-20T15:08:38.731Z,53.31
2018-03-20T15:18:38.751Z,48.77
2018-03-20T15:28:38.692Z,49.22
2018-03-20T15:38:38.702Z,50.37
2018-03-20T15:48:38.677Z,49.6
2018-03-20T15:58:38.728Z,51.03
2018-03-20T16:08:38.762Z,53.85
2018-03-20T16:18:38.798Z,56.8
2018-03-20T16:28:38.784Z,56.42
2018-03-20T16:38:38.832Z,56.32
2018-03-20T16:48:38.792Z,60.41
2018-03-20T16:58:38.829Z,58.2
2018-03-20T17:08:38.775Z,58.86
2018-03-20T17:18:38.874Z,61.14
2018-03-20T17:28:38.777Z,64.52
2018-03-20T17:38:38.800Z,66.14
2018-03-20T17:48:38.795Z,68.57
2018-03-20T17:58:38.871Z,69.52
2018-03-20T18:08:38.912Z,70.15
2018-03-20T18:18:38.835Z,71.47
2018-03-20T18:28:38.851Z,75.79
2018-03-20T18:38:38.871Z,78.83
2018-03-20T18:48:38.859Z,81.01
2018-03-20T18:58:38.858Z,82.24
2018-03-20T19:08:38.839Z,83.81
2018-03-20T19:18:38.876Z,85.17
2018-03-20T19:28:38.888Z,86.6
2018-03-20T19:38:38.939Z,88.45
2018-03-20T19:48:39.056Z,90.06
2018-03-20T19:58:39.029Z,91.1
2018-03-20T20:08:39.108Z,92.66
2018-03-20T20:18:51.167Z,96.26
2018-03-20T20:28:38.995Z,98.25
2018-03-20T20:38:38.942Z,98.91
2018-03-20T20:48:38.928Z,99.99
2018-03-20T20:58:39.013Z,99.99
2018-03-20T21:08:38.958Z,99.99
2018-03-20T21:18:39.022Z,99.99
2018-03-20T21:28:38.971Z,99.99
2018-03-20T21:38:39.022Z,99.99
2018-03-20T21:48:38.998Z,99.99
2018-03-20T21:58:39.071Z,99.99
2018-03-20T22:08:38.981Z,99.99
2018-03-20T22:18:40.178Z,99.99
2018-03-20T22:28:43.589Z,99.99
2018-03-20T22:38:39.032Z,99.99
2018-03-20T22:48:39.091Z,99.99
2018-03-20T22:58:39.248Z,99.99
2018-03-20T23:08:39.077Z,99.99
2018-03-20T23:18:43.649Z,99.99
2018-03-20T23:28:39.107Z,99.99
2018-03-20T23:38:39.495Z,99.99
2018-03-20T23:48:39.096Z,99.99
2018-03-20T23:58:39.072Z,99.99
